Time;durP1;ratioP1;P1;durP2;ratioP2;P2;SDS_P1;SDS_P2;PMS_P1;PMS_P2;Temp;Humidity;BMP_temperature;BMP_pressure;BME280_temperature;BME280_humidity;BME280_pressure;Samples;Min_cycle;Max_cycle;Signal;HPM_P1;HPM_P2
2022/08/09 00:01:38;;;;;;;3.70;2.07;;;23.00;96.10;;;23.27;48.54;102112.47;4994140;28;97557;-44
2022/08/09 00:04:05;;;;;;;3.40;3.07;;;22.90;97.00;;;23.22;45.85;102104.72;5008991;28;97001;-44
2022/08/09 00:06:31;;;;;;;5.53;3.10;;;22.90;96.00;;;23.20;48.33;102103.09;5007268;28;97429;-44
2022/08/09 00:08:57;;;;;;;2.90;2.47;;;22.80;97.00;;;23.21;47.93;102100.31;5004045;27;97183;-44
2022/08/09 00:11:23;;;;;;;2.30;1.87;;;22.90;97.00;;;23.21;48.57;102107.53;5007926;28;97091;-43
2022/08/09 00:13:50;;;;;;;1.80;1.70;;;22.90;97.60;;;23.22;49.24;102098.47;5002340;28;97560;-46
2022/08/09 00:16:17;;;;;;;5.57;3.60;;;22.90;98.70;;;23.23;47.56;102101.06;4994991;28;97042;-49
2022/08/09 00:18:43;;;;;;;2.30;1.70;;;22.90;96.50;;;23.19;49.13;102098.69;5008565;28;97387;-47
2022/08/09 00:21:09;;;;;;;1.67;1.57;;;22.80;98.40;;;23.19;48.99;102096.00;5000623;28;96760;-43
2022/08/09 00:23:36;;;;;;;1.70;1.60;;;22.90;97.90;;;23.18;48.99;102092.44;4996965;28;97077;-43
2022/08/09 00:26:04;;;;;;;4.10;3.00;;;22.80;98.10;;;23.20;48.00;102101.28;4992014;28;97696;-49
2022/08/09 00:28:30;;;;;;;5.30;2.80;;;22.90;96.90;;;23.17;46.08;102090.72;5003968;28;97279;-46
2022/08/09 00:30:57;;;;;;;3.30;2.00;;;22.90;96.10;;;23.11;48.54;102088.41;5011459;28;96994;-45
2022/08/09 00:33:23;;;;;;;3.37;2.93;;;22.70;97.40;;;23.05;48.73;102094.22;4992664;28;97129;-45
2022/08/09 00:35:49;;;;;;;2.27;1.97;;;22.60;98.10;;;23.05;48.91;102091.53;4997020;28;97225;-46
2022/08/09 00:38:15;;;;;;;1.70;1.60;;;22.60;97.40;;;22.98;49.44;102096.41;4999199;28;96657;-47
2022/08/09 00:40:42;;;;;;;6.27;3.77;;;22.50;98.60;;;22.97;48.58;102083.06;5013216;28;97054;-48
2022/08/09 00:43:08;;;;;;;1.80;1.70;;;22.50;97.10;;;23.00;49.58;102090.94;5003194;28;97366;-46
2022/08/09 00:45:34;;;;;;;3.57;3.23;;;22.60;98.60;;;22.89;48.67;102085.41;5009230;28;97529;-47
2022/08/09 00:48:02;;;;;;;4.57;2.73;;;22.40;97.50;;;22.93;49.56;102092.31;5006087;28;99719;-46
2022/08/09 00:50:27;;;;;;;1.80;1.70;;;22.50;98.20;;;22.95;49.49;102095.75;5005728;28;102771;-44
2022/08/09 00:52:53;;;;;;;8.00;2.80;;;22.50;98.20;;;22.92;49.16;102098.66;4980095;28;96960;-43
2022/08/09 00:55:19;;;;;;;2.40;2.20;;;22.50;98.20;;;22.95;49.75;102106.53;4990456;28;97100;-43
2022/08/09 00:57:45;;;;;;;3.10;2.80;;;22.50;98.60;;;22.92;48.01;102112.13;4986100;28;96784;-44
2022/08/09 01:00:13;;;;;;;4.67;3.20;;;22.50;96.60;;;22.88;47.23;102115.97;4979674;28;99795;-45
2022/08/09 01:02:49;;;;;;;5.07;3.20;;;22.40;96.80;;;22.86;46.89;102108.00;5009939;28;97470;-44
2022/08/09 01:05:45;;;;;;;3.40;2.43;;;22.40;97.10;;;22.90;47.87;102114.03;5002455;28;97435;-45
2022/08/09 01:08:33;;;;;;;3.87;3.03;;;22.50;97.00;;;22.87;47.80;102114.25;4982132;28;97295;-45
2022/08/09 01:11:17;;;;;;;2.63;2.17;;;22.40;97.20;;;22.92;48.65;102114.81;4999837;28;97529;-44
2022/08/09 01:14:15;;;;;;;2.17;2.00;;;22.50;97.50;;;22.92;49.99;102106.72;4995844;28;97163;-47
2022/08/09 01:16:43;;;;;;;4.17;2.70;;;22.50;99.30;;;22.87;49.31;102101.66;4912709;28;97587;-44
2022/08/09 01:19:39;;;;;;;2.50;2.13;;;22.40;97.50;;;22.94;49.77;102104.81;4991869;28;97507;-47
2022/08/09 01:22:56;;;;;;;3.37;2.37;;;22.50;98.90;;;22.96;49.44;102109.13;4996040;28;97351;-44
2022/08/09 01:26:07;;;;;;;2.37;2.00;;;22.60;98.00;;;22.99;48.50;102097.28;4999540;28;97579;-44
2022/08/09 01:28:37;;;;;;;4.70;2.53;;;22.70;99.30;;;22.90;49.34;102104.16;4992254;28;98385;-46
2022/08/09 01:31:10;;;;;;;5.30;3.20;;;22.50;97.90;;;22.92;48.56;102095.97;4985020;28;98950;-44
2022/08/09 01:33:39;;;;;;;3.00;2.13;;;22.50;98.00;;;22.87;48.83;102092.72;4985656;28;97445;-46
2022/08/09 01:36:13;;;;;;;1.93;1.83;;;22.40;98.00;;;22.92;49.68;102095.97;4994615;28;96963;-45
2022/08/09 01:38:43;;;;;;;1.70;1.60;;;22.50;99.20;;;22.90;49.95;102104.16;4980387;28;99862;-52
2022/08/09 01:41:23;;;;;;;1.80;1.70;;;22.50;99.00;;;22.94;49.75;102099.41;4983898;28;98088;-48
2022/08/09 01:44:02;;;;;;;2.00;1.80;;;22.50;99.20;;;22.93;49.86;102097.69;4980530;28;100041;-49
2022/08/09 01:46:37;;;;;;;6.43;3.50;;;22.50;99.20;;;22.88;48.85;102094.44;4972584;28;97335;-48
2022/08/09 01:49:11;;;;;;;2.10;1.90;;;22.40;97.40;;;22.91;49.33;102100.50;4999815;28;96986;-49
2022/08/09 01:51:42;;;;;;;1.77;1.67;;;22.50;98.10;;;22.96;49.88;102105.56;5001978;28;99702;-49
2022/08/09 01:54:09;;;;;;;3.60;2.70;;;22.60;99.50;;;22.94;48.80;102102.09;4992595;28;97640;-48
2022/08/09 01:56:38;;;;;;;2.67;1.90;;;22.50;97.20;;;22.84;50.02;102105.38;4993444;28;101188;-50
2022/08/09 01:59:10;;;;;;;1.97;1.87;;;22.40;99.60;;;22.88;49.63;102098.00;4991429;28;97373;-50
2022/08/09 02:01:38;;;;;;;2.13;1.93;;;22.40;98.90;;;22.84;50.27;102094.63;4993723;28;97506;-50
2022/08/09 02:04:05;;;;;;;1.70;1.60;;;22.40;99.90;;;22.81;50.39;102104.69;4999567;28;97262;-47
2022/08/09 02:09:19;;;;;;;4.97;3.57;;;22.30;97.40;;;22.71;48.74;102104.44;4977703;28;97328;-51
2022/08/09 02:11:45;;;;;;;2.40;2.20;;;22.20;97.70;;;22.68;50.28;102099.22;4983914;28;97995;-50
2022/08/09 02:14:14;;;;;;;1.70;1.60;;;22.10;99.70;;;22.72;50.53;102103.47;4982824;28;97950;-49
2022/08/09 02:16:42;;;;;;;2.50;1.90;;;22.30;99.60;;;22.78;50.55;102105.75;4980985;28;97245;-48
2022/08/09 02:19:09;;;;;;;1.80;1.70;;;22.40;99.90;;;22.82;50.41;102115.38;5000498;28;96829;-47
2022/08/09 02:21:44;;;;;;;4.53;3.00;;;22.50;99.90;;;22.78;49.57;102105.75;5001939;28;98871;-51
2022/08/09 02:24:19;;;;;;;6.57;2.03;;;22.30;97.50;;;22.78;50.50;102097.69;4990381;28;98873;-47
2022/08/09 02:26:46;;;;;;;2.77;2.47;;;22.30;99.90;;;22.78;49.28;102105.75;4976298;28;97249;-46
2022/08/09 02:29:22;;;;;;;1.80;1.70;;;22.30;97.70;;;22.82;49.78;102096.56;4995509;28;97609;-49
2022/08/09 02:31:50;;;;;;;1.93;1.60;;;22.40;98.90;;;22.85;50.45;102101.72;4982728;28;97792;-50
2022/08/09 02:34:26;;;;;;;3.53;2.17;;;22.40;99.90;;;22.84;48.83;102102.69;4996147;28;97183;-54
2022/08/09 02:36:56;;;;;;;2.33;2.13;;;22.40;98.30;;;22.82;48.93;102101.94;4986173;28;97568;-52
2022/08/09 02:39:28;;;;;;;5.40;2.80;;;22.40;98.60;;;22.77;49.81;102098.66;5009050;28;101568;-50
2022/08/09 02:42:05;;;;;;;3.30;2.97;;;22.30;98.50;;;22.77;47.06;102097.78;4986713;28;98030;-54
2022/08/09 02:44:37;;;;;;;3.10;2.30;;;22.30;97.40;;;22.78;50.04;102095.00;4996345;28;99608;-50
2022/08/09 02:47:08;;;;;;;3.17;2.60;;;22.30;98.60;;;22.75;48.64;102089.81;5005554;28;97397;-52
2022/08/09 02:49:41;;;;;;;4.67;3.03;;;22.20;97.80;;;22.70;49.19;102085.69;4997783;28;97100;-49
2022/08/09 02:52:11;;;;;;;4.57;3.10;;;22.10;97.70;;;22.71;48.53;102093.69;4982745;28;98709;-53
2022/08/09 02:54:38;;;;;;;2.33;2.07;;;22.20;97.90;;;22.65;50.93;102094.06;4997542;28;97411;-51
2022/08/09 02:57:05;;;;;;;6.20;3.20;;;22.10;99.90;;;22.60;47.15;102096.19;4980229;28;97235;-52
2022/08/09 02:59:34;;;;;;;2.13;1.60;;;22.10;97.80;;;22.61;50.90;102087.16;4982877;28;97088;-47
2022/08/09 03:02:03;;;;;;;2.90;2.23;;;22.00;99.90;;;22.66;50.61;102094.91;4989597;28;97413;-51
2022/08/09 03:04:31;;;;;;;2.10;1.90;;;22.20;99.60;;;22.64;50.70;102086.94;4991990;28;101271;-48
2022/08/09 03:07:01;;;;;;;3.07;2.80;;;22.20;99.60;;;22.66;48.89;102093.09;4992956;28;98445;-48
2022/08/09 03:09:27;;;;;;;2.30;2.10;;;22.20;98.20;;;22.61;50.98;102097.91;4995811;28;97534;-50
2022/08/09 03:11:55;;;;;;;3.70;2.90;;;22.10;99.90;;;22.59;47.18;102094.47;5001656;28;97649;-51
2022/08/09 03:14:21;;;;;;;3.73;3.00;;;22.10;97.90;;;22.60;47.72;102106.94;4976817;28;110042;-52
2022/08/09 03:16:47;;;;;;;1.90;1.80;;;22.10;98.30;;;22.50;51.17;102100.41;4983479;28;97197;-51
2022/08/09 03:19:18;;;;;;;1.83;1.73;;;21.90;99.90;;;22.61;51.08;102100.59;5005439;28;96935;-45
2022/08/09 03:21:45;;;;;;;2.00;1.80;;;22.10;99.90;;;22.66;51.03;102095.78;5008085;28;97605;-47
2022/08/09 03:24:11;;;;;;;1.70;1.57;;;22.20;99.90;;;22.68;50.41;102098.38;4996234;28;100783;-49
2022/08/09 03:26:38;;;;;;;1.93;1.80;;;22.30;99.00;;;22.69;50.52;102098.28;5006337;28;97692;-49
2022/08/09 03:29:04;;;;;;;2.10;1.90;;;22.30;99.30;;;22.71;50.64;102099.06;4994395;28;97234;-51
2022/08/09 03:31:30;;;;;;;6.80;3.10;;;22.30;99.40;;;22.67;48.33;102092.13;5010476;28;97311;-44
2022/08/09 03:33:58;;;;;;;3.50;3.20;;;22.30;98.20;;;22.64;50.03;102096.84;5009203;28;97580;-44
2022/08/09 03:36:24;;;;;;;3.70;2.70;;;22.10;98.30;;;22.67;49.74;102102.88;5007866;28;96940;-46
2022/08/09 03:38:49;;;;;;;2.23;2.03;;;22.20;98.80;;;22.65;50.78;102099.44;4989959;28;97273;-49
2022/08/09 03:41:15;;;;;;;6.73;3.50;;;22.20;99.90;;;22.61;47.50;102097.06;5010962;28;97402;-46
2022/08/09 03:43:43;;;;;;;4.00;2.50;;;22.10;98.10;;;22.60;49.96;102096.19;5009505;28;96923;-47
2022/08/09 03:46:09;;;;;;;2.37;2.00;;;22.10;98.40;;;22.61;51.04;102108.66;5004721;28;96703;-46
2022/08/09 03:48:36;;;;;;;5.53;2.90;;;22.10;99.90;;;22.59;47.77;102104.34;5010976;28;97125;-44
2022/08/09 03:51:06;;;;;;;1.70;1.60;;;22.10;98.00;;;22.55;51.31;102114.41;4994233;28;97504;-51
2022/08/09 03:53:33;;;;;;;1.73;1.63;;;22.00;99.90;;;22.57;51.17;102112.53;5006336;28;101706;-47
2022/08/09 03:55:59;;;;;;;1.87;1.67;;;22.10;99.90;;;22.58;51.45;102113.38;5014198;28;97392;-45
2022/08/09 03:58:25;;;;;;;3.70;2.70;;;22.10;99.90;;;22.40;47.40;102110.00;4986305;28;97468;-46
2022/08/09 04:00:53;;;;;;;2.00;1.70;;;21.80;98.40;;;22.50;51.31;102105.78;4991743;28;99278;-47
2022/08/09 04:03:20;;;;;;;2.67;2.40;;;22.00;99.90;;;22.36;51.04;102113.84;4985453;28;109750;-45
2022/08/09 04:05:45;;;;;;;3.07;2.13;;;21.80;99.90;;;22.43;51.19;102109.84;4999049;28;97209;-48
2022/08/09 04:08:11;;;;;;;3.23;2.47;;;21.90;99.90;;;22.41;50.31;102117.09;4997528;28;96809;-45
2022/08/09 04:10:37;;;;;;;2.57;1.90;;;21.80;99.10;;;22.44;51.58;102119.63;5003792;28;97407;-50
2022/08/09 04:13:08;;;;;;;2.13;1.67;;;21.90;99.90;;;22.50;51.24;102124.59;4998693;28;96751;-54
2022/08/09 04:15:36;;;;;;;2.23;2.03;;;22.00;99.90;;;22.53;51.28;102116.34;4998279;27;97257;-49
2022/08/09 04:18:04;;;;;;;2.00;1.90;;;22.10;99.70;;;22.52;51.32;102122.69;5008294;28;96949;-45
2022/08/09 04:20:31;;;;;;;1.50;1.40;;;22.00;99.90;;;22.55;51.49;102125.16;4993695;28;101796;-46
2022/08/09 04:22:58;;;;;;;6.40;2.77;;;22.10;99.90;;;22.54;49.28;102123.44;5005957;28;103898;-46
2022/08/09 04:25:23;;;;;;;1.97;1.77;;;22.00;98.60;;;22.61;50.99;102122.13;5003010;28;97300;-45
2022/08/09 04:27:49;;;;;;;5.30;3.00;;;22.10;99.90;;;22.58;49.12;102124.13;5000999;28;96756;-45
2022/08/09 04:30:18;;;;;;;1.80;1.67;;;22.10;98.70;;;22.51;51.44;102137.09;4999229;28;101605;-46
2022/08/09 04:32:44;;;;;;;1.80;1.47;;;21.90;99.90;;;22.56;51.54;102126.91;4997121;28;98135;-45
2022/08/09 04:35:12;;;;;;;5.27;3.03;;;22.10;99.90;;;22.56;48.43;102134.97;4998663;28;97348;-44
2022/08/09 04:37:38;;;;;;;1.97;1.80;;;22.10;98.40;;;22.50;51.62;102144.28;4998985;28;97789;-47
2022/08/09 04:40:06;;;;;;;1.80;1.70;;;22.00;99.90;;;22.52;51.13;102141.50;4993153;28;97028;-45
2022/08/09 04:42:32;;;;;;;1.97;1.77;;;22.00;99.90;;;22.54;51.20;102150.34;5002160;28;98190;-44
2022/08/09 04:44:59;;;;;;;4.20;2.37;;;22.10;99.90;;;22.55;51.11;102154.75;5000600;28;99162;-46
2022/08/09 04:47:28;;;;;;;3.07;2.03;;;22.10;99.90;;;22.52;50.96;102149.56;5006015;28;97389;-47
2022/08/09 04:49:54;;;;;;;1.40;1.30;;;22.00;99.50;;;22.54;51.59;102148.50;5004123;28;97882;-45
2022/08/09 04:52:24;;;;;;;2.57;1.70;;;22.00;99.90;;;22.56;51.17;102159.16;4995924;28;97166;-47
2022/08/09 04:54:53;;;;;;;2.67;2.43;;;22.10;99.90;;;22.49;50.71;102149.78;5009659;27;97299;-48
2022/08/09 04:57:20;;;;;;;6.13;2.90;;;21.90;99.20;;;22.26;48.20;102152.03;4994688;28;97188;-45
2022/08/09 04:59:45;;;;;;;2.60;1.93;;;21.60;99.40;;;22.16;51.83;102153.59;5008074;28;97801;-46
2022/08/09 05:02:12;;;;;;;3.30;1.80;;;21.40;99.90;;;22.27;51.98;102156.47;4996762;28;101058;-45
2022/08/09 05:04:39;;;;;;;4.13;2.07;;;21.70;99.90;;;22.27;51.84;102145.69;4998604;28;97359;-47
2022/08/09 05:07:05;;;;;;;2.47;1.70;;;21.70;99.90;;;22.34;52.04;102142.66;5004280;28;97191;-45
2022/08/09 05:09:30;;;;;;;4.13;2.63;;;21.80;99.90;;;22.34;50.96;102148.91;5003688;28;110682;-51
2022/08/09 05:11:59;;;;;;;2.77;2.30;;;21.80;99.80;;;22.26;51.82;102148.50;5003371;28;97316;-50
2022/08/09 05:14:25;;;;;;;4.40;2.60;;;21.70;99.90;;;22.34;51.15;102153.41;5007157;28;96771;-51
2022/08/09 05:16:51;;;;;;;3.10;1.77;;;21.80;99.90;;;22.32;51.86;102150.81;5006965;28;97006;-48
2022/08/09 05:19:20;;;;;;;3.83;1.90;;;21.80;99.90;;;22.39;51.36;102153.97;5007212;28;97803;-45
2022/08/09 05:21:47;;;;;;;6.10;2.93;;;21.90;99.90;;;22.40;51.48;102161.09;5005876;28;97075;-47
2022/08/09 05:24:14;;;;;;;5.40;2.83;;;21.90;99.90;;;22.45;51.15;102164.38;4996055;28;101107;-45
2022/08/09 05:26:40;;;;;;;4.30;2.07;;;22.00;99.90;;;22.47;51.25;102163.31;5008789;28;96878;-44
2022/08/09 05:29:06;;;;;;;2.67;1.60;;;22.00;99.90;;;22.50;51.44;102164.94;5004891;28;96901;-45
2022/08/09 05:31:32;;;;;;;5.87;2.70;;;22.00;99.90;;;22.47;51.53;102154.38;5005297;28;96583;-46
2022/08/09 05:33:58;;;;;;;2.90;2.00;;;21.90;99.90;;;22.56;51.39;102160.03;5004613;28;97486;-45
2022/08/09 05:36:24;;;;;;;2.83;1.90;;;22.10;99.90;;;22.61;51.08;102158.91;4962908;28;97530;-45
2022/08/09 05:38:49;;;;;;;8.73;3.27;;;22.20;99.90;;;22.63;50.50;102165.91;5003472;28;98984;-44
2022/08/09 05:41:15;;;;;;;2.40;1.97;;;22.20;99.90;;;22.64;51.20;102156.00;4997219;28;96968;-47
2022/08/09 05:43:41;;;;;;;7.07;2.93;;;22.20;99.90;;;22.66;50.89;102149.56;4998709;28;97077;-45
2022/08/09 05:46:07;;;;;;;7.80;3.47;;;22.20;99.90;;;22.68;50.35;102161.09;4996623;27;97549;-44
2022/08/09 05:48:33;;;;;;;4.33;3.20;;;22.20;99.90;;;22.66;50.23;102165.72;4985031;28;97574;-44
2022/08/09 05:50:59;;;;;;;8.37;3.33;;;22.20;99.90;;;22.68;50.52;102157.53;5006217;28;97193;-49
2022/08/09 05:53:25;;;;;;;6.90;3.60;;;22.20;99.90;;;22.57;49.94;102163.63;5002818;28;97688;-45
2022/08/09 05:55:50;;;;;;;6.57;3.30;;;22.00;99.90;;;22.52;50.01;102165.69;4997224;28;97416;-46
2022/08/09 05:58:16;;;;;;;6.60;3.50;;;21.90;99.90;;;22.51;50.47;102163.97;5007707;28;97358;-46
2022/08/09 06:00:42;;;;;;;8.40;3.20;;;21.90;99.90;;;22.43;50.36;102166.28;5002598;28;96884;-45
2022/08/09 06:03:08;;;;;;;10.53;3.33;;;21.90;99.90;;;22.41;51.14;102171.75;5005496;28;96660;-47
2022/08/09 06:05:35;;;;;;;5.73;3.13;;;21.80;99.90;;;22.40;50.68;102169.16;4999678;28;97207;-48
2022/08/09 06:08:01;;;;;;;4.37;3.00;;;21.80;99.90;;;22.36;50.91;102173.00;5010160;27;98084;-46
2022/08/09 06:10:39;;;;;;;8.23;3.13;;;21.80;99.90;;;22.33;50.92;102171.38;4996866;28;97083;-48
2022/08/09 06:13:09;;;;;;;6.17;3.47;;;21.80;99.90;;;22.26;50.61;102173.53;5011822;28;96998;-45
2022/08/09 06:15:35;;;;;;;4.40;3.03;;;21.70;99.90;;;22.33;51.99;102173.19;4988216;28;96912;-44
2022/08/09 06:18:01;;;;;;;4.37;2.83;;;21.80;99.90;;;22.40;51.06;102169.16;4998085;28;97480;-47
2022/08/09 06:20:27;;;;;;;6.50;3.53;;;21.90;99.90;;;22.37;50.13;102169.34;5002426;27;97036;-44
2022/08/09 06:22:53;;;;;;;5.63;3.17;;;21.90;99.90;;;22.41;51.22;102177.13;5001995;28;99030;-46
2022/08/09 06:25:19;;;;;;;3.57;2.67;;;22.00;99.90;;;22.40;49.55;102179.91;5002231;28;96778;-47
2022/08/09 06:27:45;;;;;;;5.93;3.07;;;22.00;99.90;;;22.37;49.62;102172.03;5006870;28;97244;-44
2022/08/09 06:30:11;;;;;;;5.63;3.07;;;21.90;99.90;;;22.35;49.85;102177.50;4995459;28;97651;-48
2022/08/09 06:32:37;;;;;;;7.17;3.03;;;21.90;99.90;;;22.33;49.87;102183.94;4999350;28;96819;-44
2022/08/09 06:35:03;;;;;;;2.23;1.87;;;21.90;99.90;;;22.41;51.47;102181.63;5016044;28;97928;-45
2022/08/09 06:37:29;;;;;;;8.33;3.30;;;21.90;99.90;;;22.39;49.48;102183.56;4997664;28;103167;-44
2022/08/09 06:39:55;;;;;;;5.20;3.07;;;22.00;99.90;;;22.46;49.60;102179.53;5005385;28;96933;-45
2022/08/09 06:42:21;;;;;;;8.10;3.20;;;22.10;99.90;;;22.37;48.47;102180.97;4994488;28;97344;-46
2022/08/09 06:44:48;;;;;;;3.60;3.03;;;22.00;99.50;;;22.34;48.87;102180.28;5005476;28;98497;-44
2022/08/09 06:47:14;;;;;;;3.23;2.60;;;21.90;99.70;;;22.39;48.96;102181.72;5011195;28;97963;-46
2022/08/09 06:49:40;;;;;;;5.03;2.90;;;21.90;99.80;;;22.41;48.74;102177.13;5015266;28;96906;-49
2022/08/09 06:52:06;;;;;;;4.37;2.80;;;22.00;99.70;;;22.40;48.59;102185.28;5001875;28;97044;-45
2022/08/09 06:54:32;;;;;;;6.77;3.30;;;22.00;99.60;;;22.42;48.45;102183.34;4999775;28;97150;-47
2022/08/09 06:56:57;;;;;;;3.97;3.00;;;22.00;99.30;;;22.47;49.87;102184.81;5003568;28;97619;-45
2022/08/09 06:59:24;;;;;;;3.47;2.90;;;22.00;99.60;;;22.51;48.25;102189.03;4999578;28;97334;-44
2022/08/09 07:01:50;;;;;;;4.20;2.43;;;22.10;99.20;;;22.55;49.80;102184.31;5005330;28;96874;-44
2022/08/09 07:04:16;;;;;;;3.43;3.13;;;22.20;99.60;;;22.65;49.57;102184.63;5007106;28;99271;-47
2022/08/09 07:06:42;;;;;;;4.50;3.07;;;22.30;99.40;;;22.65;47.93;102193.56;4997776;28;97207;-46
2022/08/09 07:09:07;;;;;;;5.53;2.90;;;22.30;98.80;;;22.64;47.97;102189.16;4999760;28;97700;-45
2022/08/09 07:11:33;;;;;;;6.00;3.50;;;22.30;98.90;;;22.61;47.98;102194.72;4996498;28;102083;-46
2022/08/09 07:13:59;;;;;;;4.30;2.63;;;22.20;98.90;;;22.62;47.84;102201.84;4996805;28;97386;-45
2022/08/09 07:16:25;;;;;;;5.20;2.87;;;22.20;98.90;;;22.62;47.76;102196.44;5009604;28;97205;-45
2022/08/09 07:18:51;;;;;;;3.47;2.73;;;22.30;98.80;;;22.64;47.61;102193.66;5003580;27;104997;-45
2022/08/09 07:21:17;;;;;;;5.23;3.10;;;22.30;98.70;;;22.66;47.89;102195.28;5012890;28;101287;-45
2022/08/09 07:23:42;;;;;;;5.70;2.70;;;22.30;98.70;;;22.74;48.60;102195.69;5011389;28;97541;-46
2022/08/09 07:26:09;;;;;;;4.57;2.60;;;22.40;98.70;;;22.80;48.04;102195.28;4985713;28;102388;-47
2022/08/09 07:28:34;;;;;;;3.50;2.50;;;22.50;98.60;;;22.87;49.14;102194.97;5013553;28;97837;-44
2022/08/09 07:31:03;;;;;;;3.80;2.40;;;22.60;98.60;;;22.94;49.84;102181.00;5005449;28;97532;-46
2022/08/09 07:33:30;;;;;;;3.93;2.90;;;22.70;99.70;;;22.97;46.84;102190.69;4993616;28;97006;-49
2022/08/09 07:35:56;;;;;;;6.70;2.70;;;22.70;97.90;;;23.00;47.80;102190.50;5004726;28;97738;-45
2022/08/09 07:38:22;;;;;;;3.77;2.97;;;22.70;98.40;;;23.03;47.00;102185.81;5006822;28;97299;-48
2022/08/09 07:40:48;;;;;;;4.60;2.90;;;22.70;97.90;;;23.08;47.15;102189.06;4999761;28;97153;-48
2022/08/09 07:43:14;;;;;;;7.83;3.13;;;22.90;98.20;;;23.10;46.56;102180.88;5007312;28;97856;-44
2022/08/09 07:45:40;;;;;;;3.33;2.60;;;22.80;97.70;;;23.12;46.68;102184.34;5014092;28;97288;-47
2022/08/09 07:48:10;;;;;;;4.03;2.50;;;22.80;97.80;;;23.12;46.83;102176.25;5005890;28;97077;-44
2022/08/09 07:50:39;;;;;;;5.30;2.47;;;22.90;97.90;;;23.13;46.55;102177.97;5006952;28;97460;-47
2022/08/09 07:53:08;;;;;;;4.47;2.60;;;22.90;97.70;;;23.17;46.51;102176.84;4999580;28;97336;-48
2022/08/09 07:55:35;;;;;;;5.17;2.70;;;22.80;97.60;;;23.20;48.73;102176.63;4997751;28;97160;-48
2022/08/09 07:58:01;;;;;;;3.77;2.83;;;23.00;98.90;;;23.25;48.51;102171.81;4989617;28;97184;-45
2022/08/09 08:00:31;;;;;;;4.37;2.70;;;23.00;98.40;;;23.28;46.17;102174.28;4992380;28;96943;-46
2022/08/09 08:02:59;;;;;;;3.53;2.80;;;23.00;97.30;;;23.29;46.27;102176.06;5009600;28;96790;-45
2022/08/09 08:05:25;;;;;;;5.43;3.07;;;23.10;97.30;;;23.34;45.90;102179.28;4999140;28;100356;-45
2022/08/09 08:07:52;;;;;;;2.47;2.27;;;23.10;97.10;;;23.38;46.61;102185.34;4999864;28;97662;-45
2022/08/09 08:10:18;;;;;;;4.17;2.30;;;23.10;97.30;;;23.39;47.80;102177.16;5004289;28;97167;-45
2022/08/09 08:12:44;;;;;;;2.27;1.80;;;23.20;98.20;;;23.45;47.75;102181.28;4996901;28;101591;-44
2022/08/09 08:15:16;;;;;;;7.13;2.93;;;23.30;98.20;;;23.52;45.59;102176.34;5003711;28;96971;-47
2022/08/09 08:17:50;;;;;;;5.77;2.60;;;23.40;96.70;;;23.52;47.34;102174.53;4996956;28;97123;-44
2022/08/09 08:20:17;;;;;;;3.13;1.90;;;23.40;97.90;;;23.47;47.55;102182.06;4995218;28;99345;-45
2022/08/09 08:22:43;;;;;;;2.47;2.20;;;23.40;97.90;;;23.53;46.79;102178.06;5006523;28;98647;-46
2022/08/09 08:25:10;;;;;;;5.13;2.77;;;23.40;97.60;;;23.56;45.23;102177.88;5012406;28;97624;-49
2022/08/09 08:27:36;;;;;;;4.57;2.77;;;23.50;96.30;;;23.61;44.73;102175.78;4992031;28;97187;-47
2022/08/09 08:30:03;;;;;;;3.05;2.63;;;23.50;95.90;;;23.64;44.93;102179.13;5011359;28;97582;-44
2022/08/09 08:32:30;;;;;;;6.90;3.00;;;23.50;96.30;;;23.69;44.31;102189.59;4999138;28;97333;-45
2022/08/09 08:34:57;;;;;;;5.20;2.97;;;23.50;95.40;;;23.71;44.51;102183.13;5000108;28;97770;-45
2022/08/09 08:37:23;;;;;;;3.83;2.80;;;23.60;95.90;;;23.76;45.66;102177.44;5001220;28;97560;-45
2022/08/09 08:39:49;;;;;;;3.30;2.90;;;23.60;96.10;;;23.83;42.91;102181.44;4998689;28;96995;-49
2022/08/09 08:42:15;;;;;;;5.20;2.58;;;23.60;94.50;;;23.88;43.11;102173.94;5000997;28;97130;-47
2022/08/09 08:44:42;;;;;;;2.35;2.15;;;23.80;94.60;;;23.86;47.35;102165.06;5000460;28;97580;-47
2022/08/09 08:47:09;;;;;;;2.80;2.60;;;23.80;97.60;;;23.85;47.34;102174.13;5006896;28;101076;-47
2022/08/09 08:49:39;;;;;;;2.90;2.60;;;23.80;97.70;;;23.87;45.99;102171.31;4992332;28;97065;-44
2022/08/09 08:52:07;;;;;;;4.95;3.00;;;23.80;96.50;;;23.88;45.70;102173.94;5010217;28;97035;-45
2022/08/09 08:54:34;;;;;;;4.70;2.40;;;23.80;95.50;;;23.79;47.92;102174.53;5009343;28;98740;-45
2022/08/09 08:57:02;;;;;;;2.25;2.00;;;23.70;97.90;;;23.63;48.16;102161.25;5001751;28;97351;-44
2022/08/09 08:59:28;;;;;;;2.53;2.10;;;23.70;98.00;;;23.55;48.43;102168.06;5010888;28;96802;-44
2022/08/09 09:01:54;;;;;;;3.00;1.85;;;23.60;98.10;;;23.67;47.97;102172.66;5013454;28;96644;-46
2022/08/09 09:04:25;;;;;;;2.25;2.05;;;23.60;98.00;;;23.66;48.23;102162.88;5008439;28;97650;-44
2022/08/09 09:06:57;;;;;;;1.70;1.60;;;23.60;98.00;;;23.66;48.22;102170.94;5010680;28;98103;-46
2022/08/09 09:09:26;;;;;;;2.15;1.95;;;23.60;98.10;;;23.64;48.08;102175.56;4980436;28;97268;-46
2022/08/09 09:11:52;;;;;;;6.15;2.90;;;23.60;98.00;;;23.56;48.15;102177.88;5006953;28;97166;-44
2022/08/09 09:14:25;;;;;;;3.85;2.67;;;23.50;97.70;;;23.69;42.77;102178.81;4990937;28;97601;-44
2022/08/09 09:16:51;;;;;;;5.32;2.47;;;23.60;94.80;;;23.76;47.62;102173.91;4995193;28;97414;-46
2022/08/09 09:19:18;;;;;;;1.80;1.70;;;23.70;97.50;;;23.84;47.41;102171.53;4993626;28;97247;-45
2022/08/09 09:22:00;;;;;;;2.70;1.70;;;23.80;97.30;;;23.71;47.49;102179.56;5004480;28;97859;-44
2022/08/09 09:24:29;;;;;;;2.17;1.80;;;23.70;97.40;;;23.58;48.15;102178.66;4987615;28;97663;-45
2022/08/09 09:26:58;;;;;;;2.20;2.00;;;23.60;97.90;;;23.71;47.84;102176.88;4994736;28;98041;-44
2022/08/09 09:29:34;;;;;;;4.05;3.22;;;23.70;97.40;;;23.90;44.45;102181.91;4986398;28;97289;-47
2022/08/09 09:32:00;;;;;;;2.80;2.00;;;23.80;94.50;;;23.90;47.34;102177.38;4994412;28;97421;-47
2022/08/09 09:34:26;;;;;;;6.13;3.20;;;23.90;97.40;;;23.94;45.52;102178.03;4991393;28;98074;-47
2022/08/09 09:36:53;;;;;;;2.40;1.83;;;23.90;95.70;;;23.70;47.97;102176.00;4998951;28;97021;-49
2022/08/09 09:39:21;;;;;;;4.22;2.90;;;23.80;97.50;;;23.81;47.02;102178.00;5012664;28;97728;-48
2022/08/09 09:41:49;;;;;;;6.10;3.08;;;23.80;96.60;;;23.87;46.27;102166.81;5004491;28;97069;-47
2022/08/09 09:44:39;;;;;;;1.80;1.48;;;23.80;96.60;;;23.88;47.42;102179.31;5010840;28;97969;-47
2022/08/09 09:47:15;;;;;;;2.70;2.17;;;23.90;97.00;;;23.84;47.24;102177.78;5002299;28;96839;-52
2022/08/09 09:49:50;;;;;;;2.22;1.83;;;23.80;97.20;;;23.92;47.29;102170.06;5001666;28;97471;-50
2022/08/09 09:52:16;;;;;;;3.15;2.50;;;23.90;97.20;;;23.97;46.66;102161.63;4997730;28;98018;-44
2022/08/09 09:54:45;;;;;;;1.80;1.70;;;23.90;96.40;;;23.92;47.31;102174.56;4977779;28;98877;-44
2022/08/09 09:57:23;;;;;;;5.35;3.05;;;23.90;97.10;;;24.06;46.58;102166.41;4991616;28;97441;-45
2022/08/09 09:59:54;;;;;;;3.90;2.53;;;24.00;96.20;;;23.98;46.24;102175.00;5002165;28;97297;-47
2022/08/09 10:02:21;;;;;;;2.42;2.22;;;24.00;96.00;;;23.98;47.23;102164.22;4992609;28;97278;-45
2022/08/09 10:05:08;;;;;;;3.47;2.45;;;24.00;97.00;;;24.14;45.69;102166.72;4996461;28;98019;-45
2022/08/09 10:07:35;;;;;;;5.18;2.80;;;24.10;95.60;;;24.20;46.35;102170.84;4993958;28;99858;-44
2022/08/09 10:10:01;;;;;;;6.70;3.15;;;24.20;96.40;;;24.32;41.58;102168.19;4985623;28;97493;-46
2022/08/09 10:12:36;;;;;;;3.15;2.85;;;24.30;93.00;;;24.35;42.27;102177.03;4990533;28;97130;-45
2022/08/09 10:15:15;;;;;;;3.17;2.15;;;24.40;94.50;;;24.18;46.35;102175.50;5004368;28;97661;-46
2022/08/09 10:17:46;;;;;;;2.25;2.05;;;24.30;96.00;;;24.14;46.53;102179.34;5005978;28;102214;-45
2022/08/09 10:20:21;;;;;;;3.65;2.35;;;24.20;96.60;;;24.24;46.26;102170.53;4993701;28;97019;-44
2022/08/09 10:22:52;;;;;;;2.28;2.10;;;24.30;96.30;;;24.11;46.60;102171.47;5010509;28;97568;-44